sensor_id;sensor_type;location;lat;lon;timestamp;P1;durP1;ratioP1;P2;durP2;ratioP2
27728;SDS011;15126;42.186;24.340;2022-09-09T00:02:10;17.43;;;15.77;;
27728;SDS011;15126;42.186;24.340;2022-09-09T00:04:45;16.33;;;15.03;;
27728;SDS011;15126;42.186;24.340;2022-09-09T00:07:25;17.63;;;16.03;;
27728;SDS011;15126;42.186;24.340;2022-09-09T00:10:07;17.20;;;15.80;;
27728;SDS011;15126;42.186;24.340;2022-09-09T00:12:46;17.63;;;16.13;;
27728;SDS011;15126;42.186;24.340;2022-09-09T00:15:22;16.20;;;14.93;;
27728;SDS011;15126;42.186;24.340;2022-09-09T00:17:56;16.63;;;15.37;;
27728;SDS011;15126;42.186;24.340;2022-09-09T00:20:31;15.93;;;14.57;;
27728;SDS011;15126;42.186;24.340;2022-09-09T00:23:04;17.70;;;16.10;;
27728;SDS011;15126;42.186;24.340;2022-09-09T00:25:40;15.77;;;14.50;;
27728;SDS011;15126;42.186;24.340;2022-09-09T00:28:13;17.23;;;15.73;;
27728;SDS011;15126;42.186;24.340;2022-09-09T00:30:44;15.70;;;14.60;;
27728;SDS011;15126;42.186;24.340;2022-09-09T00:33:15;15.67;;;14.20;;
27728;SDS011;15126;42.186;24.340;2022-09-09T00:35:44;14.13;;;12.93;;
27728;SDS011;15126;42.186;24.340;2022-09-09T00:38:15;17.50;;;16.00;;
27728;SDS011;15126;42.186;24.340;2022-09-09T00:40:46;15.50;;;14.00;;
27728;SDS011;15126;42.186;24.340;2022-09-09T00:43:22;15.83;;;14.43;;
27728;SDS011;15126;42.186;24.340;2022-09-09T00:45:56;16.07;;;14.70;;
27728;SDS011;15126;42.186;24.340;2022-09-09T00:48:52;15.87;;;14.27;;
27728;SDS011;15126;42.186;24.340;2022-09-09T00:51:29;17.27;;;15.53;;
27728;SDS011;15126;42.186;24.340;2022-09-09T00:54:10;18.23;;;15.13;;
27728;SDS011;15126;42.186;24.340;2022-09-09T00:56:49;18.67;;;16.43;;
27728;SDS011;15126;42.186;24.340;2022-09-09T00:59:28;17.17;;;15.37;;
27728;SDS011;15126;42.186;24.340;2022-09-09T01:02:02;17.40;;;16.07;;
27728;SDS011;15126;42.186;24.340;2022-09-09T01:04:39;18.23;;;16.63;;
27728;SDS011;15126;42.186;24.340;2022-09-09T01:07:09;18.13;;;16.63;;
27728;SDS011;15126;42.186;24.340;2022-09-09T01:09:44;19.53;;;17.93;;
27728;SDS011;15126;42.186;24.340;2022-09-09T01:12:24;19.73;;;17.83;;
27728;SDS011;15126;42.186;24.340;2022-09-09T01:14:58;18.77;;;17.20;;
27728;SDS011;15126;42.186;24.340;2022-09-09T01:17:30;19.27;;;17.67;;
27728;SDS011;15126;42.186;24.340;2022-09-09T01:20:04;18.67;;;16.97;;
27728;SDS011;15126;42.186;24.340;2022-09-09T01:22:40;19.50;;;17.90;;
27728;SDS011;15126;42.186;24.340;2022-09-09T01:25:22;24.23;;;18.17;;
27728;SDS011;15126;42.186;24.340;2022-09-09T01:28:10;18.73;;;17.43;;
27728;SDS011;15126;42.186;24.340;2022-09-09T01:30:42;19.83;;;17.73;;
27728;SDS011;15126;42.186;24.340;2022-09-09T01:33:09;18.23;;;16.73;;
27728;SDS011;15126;42.186;24.340;2022-09-09T01:35:41;17.53;;;16.00;;
27728;SDS011;15126;42.186;24.340;2022-09-09T01:38:15;17.73;;;16.43;;
27728;SDS011;15126;42.186;24.340;2022-09-09T01:40:43;18.53;;;17.03;;
27728;SDS011;15126;42.186;24.340;2022-09-09T01:43:11;17.73;;;16.03;;
27728;SDS011;15126;42.186;24.340;2022-09-09T01:45:39;19.53;;;18.07;;
27728;SDS011;15126;42.186;24.340;2022-09-09T01:48:08;17.83;;;16.33;;
27728;SDS011;15126;42.186;24.340;2022-09-09T01:50:35;20.03;;;18.50;;
27728;SDS011;15126;42.186;24.340;2022-09-09T01:53:02;19.03;;;17.70;;
27728;SDS011;15126;42.186;24.340;2022-09-09T01:55:30;18.07;;;16.57;;
27728;SDS011;15126;42.186;24.340;2022-09-09T01:58:10;19.83;;;17.90;;
27728;SDS011;15126;42.186;24.340;2022-09-09T02:00:50;18.90;;;17.20;;
27728;SDS011;15126;42.186;24.340;2022-09-09T02:03:23;18.47;;;16.90;;
27728;SDS011;15126;42.186;24.340;2022-09-09T02:05:55;19.37;;;17.57;;
27728;SDS011;15126;42.186;24.340;2022-09-09T02:08:33;20.13;;;18.53;;
27728;SDS011;15126;42.186;24.340;2022-09-09T02:11:06;20.70;;;18.83;;
27728;SDS011;15126;42.186;24.340;2022-09-09T02:13:39;19.73;;;18.23;;
27728;SDS011;15126;42.186;24.340;2022-09-09T02:16:10;20.73;;;19.03;;
27728;SDS011;15126;42.186;24.340;2022-09-09T02:18:42;20.17;;;18.23;;
27728;SDS011;15126;42.186;24.340;2022-09-09T02:21:14;19.50;;;17.50;;
27728;SDS011;15126;42.186;24.340;2022-09-09T02:23:43;20.87;;;19.10;;
27728;SDS011;15126;42.186;24.340;2022-09-09T02:26:13;21.87;;;19.77;;
27728;SDS011;15126;42.186;24.340;2022-09-09T02:28:46;22.07;;;20.23;;
27728;SDS011;15126;42.186;24.340;2022-09-09T02:31:20;21.67;;;19.80;;
27728;SDS011;15126;42.186;24.340;2022-09-09T02:33:51;22.03;;;20.37;;
27728;SDS011;15126;42.186;24.340;2022-09-09T02:36:22;22.43;;;20.33;;
27728;SDS011;15126;42.186;24.340;2022-09-09T02:38:54;20.10;;;18.60;;
27728;SDS011;15126;42.186;24.340;2022-09-09T02:41:22;21.77;;;19.77;;
27728;SDS011;15126;42.186;24.340;2022-09-09T02:43:55;22.47;;;20.13;;
27728;SDS011;15126;42.186;24.340;2022-09-09T02:46:24;19.70;;;18.30;;
27728;SDS011;15126;42.186;24.340;2022-09-09T02:49:02;20.40;;;18.83;;
27728;SDS011;15126;42.186;24.340;2022-09-09T02:51:35;20.57;;;19.03;;
27728;SDS011;15126;42.186;24.340;2022-09-09T02:54:12;20.10;;;18.33;;
27728;SDS011;15126;42.186;24.340;2022-09-09T02:56:48;21.63;;;19.80;;
27728;SDS011;15126;42.186;24.340;2022-09-09T02:59:19;19.87;;;18.07;;
27728;SDS011;15126;42.186;24.340;2022-09-09T03:01:47;18.80;;;17.27;;
27728;SDS011;15126;42.186;24.340;2022-09-09T03:04:14;20.03;;;18.33;;
27728;SDS011;15126;42.186;24.340;2022-09-09T03:06:40;18.27;;;16.63;;
27728;SDS011;15126;42.186;24.340;2022-09-09T03:09:07;18.33;;;17.07;;
27728;SDS011;15126;42.186;24.340;2022-09-09T03:11:35;19.03;;;17.63;;
27728;SDS011;15126;42.186;24.340;2022-09-09T03:14:03;18.10;;;16.67;;
27728;SDS011;15126;42.186;24.340;2022-09-09T03:16:32;19.37;;;17.70;;
27728;SDS011;15126;42.186;24.340;2022-09-09T03:18:59;19.40;;;17.60;;
27728;SDS011;15126;42.186;24.340;2022-09-09T03:21:26;18.80;;;16.90;;
27728;SDS011;15126;42.186;24.340;2022-09-09T03:23:53;19.90;;;18.23;;
27728;SDS011;15126;42.186;24.340;2022-09-09T03:26:19;20.67;;;18.63;;
27728;SDS011;15126;42.186;24.340;2022-09-09T03:28:46;20.67;;;18.73;;
27728;SDS011;15126;42.186;24.340;2022-09-09T03:31:15;19.43;;;17.47;;
27728;SDS011;15126;42.186;24.340;2022-09-09T03:33:43;22.27;;;19.97;;
27728;SDS011;15126;42.186;24.340;2022-09-09T03:36:09;21.20;;;19.37;;
27728;SDS011;15126;42.186;24.340;2022-09-09T03:38:36;22.07;;;20.20;;
27728;SDS011;15126;42.186;24.340;2022-09-09T03:41:03;21.27;;;19.57;;
27728;SDS011;15126;42.186;24.340;2022-09-09T03:43:33;20.30;;;18.60;;
27728;SDS011;15126;42.186;24.340;2022-09-09T03:46:00;22.43;;;20.57;;
27728;SDS011;15126;42.186;24.340;2022-09-09T03:48:26;21.63;;;19.50;;
27728;SDS011;15126;42.186;24.340;2022-09-09T03:50:55;21.67;;;19.73;;
27728;SDS011;15126;42.186;24.340;2022-09-09T03:53:25;22.67;;;20.37;;
27728;SDS011;15126;42.186;24.340;2022-09-09T03:55:53;21.23;;;19.23;;
27728;SDS011;15126;42.186;24.340;2022-09-09T03:58:21;20.67;;;18.80;;
27728;SDS011;15126;42.186;24.340;2022-09-09T04:00:55;20.63;;;18.93;;
27728;SDS011;15126;42.186;24.340;2022-09-09T04:03:23;21.57;;;19.77;;
27728;SDS011;15126;42.186;24.340;2022-09-09T04:05:50;20.20;;;18.60;;
27728;SDS011;15126;42.186;24.340;2022-09-09T04:08:19;20.53;;;18.60;;
27728;SDS011;15126;42.186;24.340;2022-09-09T04:10:46;19.50;;;17.93;;
27728;SDS011;15126;42.186;24.340;2022-09-09T04:13:14;21.93;;;19.90;;
27728;SDS011;15126;42.186;24.340;2022-09-09T04:15:42;20.40;;;18.57;;
27728;SDS011;15126;42.186;24.340;2022-09-09T04:18:10;22.37;;;20.50;;
27728;SDS011;15126;42.186;24.340;2022-09-09T04:20:37;20.30;;;18.27;;
27728;SDS011;15126;42.186;24.340;2022-09-09T04:23:04;22.63;;;20.33;;
27728;SDS011;15126;42.186;24.340;2022-09-09T04:25:32;22.70;;;19.87;;
27728;SDS011;15126;42.186;24.340;2022-09-09T04:28:00;21.50;;;19.30;;
27728;SDS011;15126;42.186;24.340;2022-09-09T04:30:27;21.53;;;19.30;;
27728;SDS011;15126;42.186;24.340;2022-09-09T04:32:54;20.63;;;18.77;;
27728;SDS011;15126;42.186;24.340;2022-09-09T04:35:21;20.97;;;19.03;;
27728;SDS011;15126;42.186;24.340;2022-09-09T04:37:48;21.40;;;18.20;;
27728;SDS011;15126;42.186;24.340;2022-09-09T04:40:15;19.83;;;17.97;;
27728;SDS011;15126;42.186;24.340;2022-09-09T04:42:43;20.03;;;18.23;;
27728;SDS011;15126;42.186;24.340;2022-09-09T04:45:10;18.63;;;17.03;;
27728;SDS011;15126;42.186;24.340;2022-09-09T04:47:38;17.57;;;15.87;;
27728;SDS011;15126;42.186;24.340;2022-09-09T04:50:06;17.80;;;15.97;;
27728;SDS011;15126;42.186;24.340;2022-09-09T04:52:34;17.17;;;15.30;;
27728;SDS011;15126;42.186;24.340;2022-09-09T04:55:01;21.13;;;19.10;;
27728;SDS011;15126;42.186;24.340;2022-09-09T04:57:29;18.00;;;16.17;;
27728;SDS011;15126;42.186;24.340;2022-09-09T04:59:58;19.60;;;17.63;;
27728;SDS011;15126;42.186;24.340;2022-09-09T05:02:27;18.77;;;17.27;;
27728;SDS011;15126;42.186;24.340;2022-09-09T05:04:55;17.97;;;16.37;;
27728;SDS011;15126;42.186;24.340;2022-09-09T05:07:22;18.83;;;16.10;;
27728;SDS011;15126;42.186;24.340;2022-09-09T05:09:49;22.00;;;16.07;;
27728;SDS011;15126;42.186;24.340;2022-09-09T05:12:16;19.20;;;17.13;;
27728;SDS011;15126;42.186;24.340;2022-09-09T05:14:42;20.10;;;18.17;;
27728;SDS011;15126;42.186;24.340;2022-09-09T05:17:11;23.60;;;16.90;;
27728;SDS011;15126;42.186;24.340;2022-09-09T05:19:38;20.00;;;17.03;;
27728;SDS011;15126;42.186;24.340;2022-09-09T05:22:05;18.70;;;15.93;;
27728;SDS011;15126;42.186;24.340;2022-09-09T05:24:32;17.30;;;15.50;;
27728;SDS011;15126;42.186;24.340;2022-09-09T05:26:59;17.60;;;15.80;;
27728;SDS011;15126;42.186;24.340;2022-09-09T05:29:27;19.67;;;16.87;;
27728;SDS011;15126;42.186;24.340;2022-09-09T05:31:54;19.03;;;17.13;;
27728;SDS011;15126;42.186;24.340;2022-09-09T05:34:22;19.37;;;17.27;;
27728;SDS011;15126;42.186;24.340;2022-09-09T05:36:49;17.83;;;16.33;;
27728;SDS011;15126;42.186;24.340;2022-09-09T05:39:17;20.20;;;16.87;;
27728;SDS011;15126;42.186;24.340;2022-09-09T05:41:44;22.20;;;17.07;;
27728;SDS011;15126;42.186;24.340;2022-09-09T05:44:10;18.03;;;16.33;;
27728;SDS011;15126;42.186;24.340;2022-09-09T05:46:38;17.53;;;15.60;;
27728;SDS011;15126;42.186;24.340;2022-09-09T05:49:05;15.77;;;14.27;;
27728;SDS011;15126;42.186;24.340;2022-09-09T05:51:34;23.37;;;15.83;;
27728;SDS011;15126;42.186;24.340;2022-09-09T05:54:01;16.73;;;15.13;;
27728;SDS011;15126;42.186;24.340;2022-09-09T05:56:28;15.17;;;13.80;;
27728;SDS011;15126;42.186;24.340;2022-09-09T05:58:55;22.47;;;14.23;;
27728;SDS011;15126;42.186;24.340;2022-09-09T06:01:25;17.00;;;15.30;;
27728;SDS011;15126;42.186;24.340;2022-09-09T06:03:53;15.90;;;14.50;;
27728;SDS011;15126;42.186;24.340;2022-09-09T06:06:21;14.37;;;12.60;;
27728;SDS011;15126;42.186;24.340;2022-09-09T06:08:51;13.47;;;12.17;;
27728;SDS011;15126;42.186;24.340;2022-09-09T06:11:20;17.93;;;13.80;;
27728;SDS011;15126;42.186;24.340;2022-09-09T06:13:48;14.50;;;13.03;;
27728;SDS011;15126;42.186;24.340;2022-09-09T06:16:17;15.47;;;13.70;;
27728;SDS011;15126;42.186;24.340;2022-09-09T06:18:45;13.70;;;12.40;;
27728;SDS011;15126;42.186;24.340;2022-09-09T06:21:14;22.13;;;17.83;;
27728;SDS011;15126;42.186;24.340;2022-09-09T06:23:43;13.27;;;11.40;;
27728;SDS011;15126;42.186;24.340;2022-09-09T06:26:12;16.17;;;12.50;;
27728;SDS011;15126;42.186;24.340;2022-09-09T06:28:40;7.83;;;6.50;;
27728;SDS011;15126;42.186;24.340;2022-09-09T06:31:08;11.53;;;6.83;;
27728;SDS011;15126;42.186;24.340;2022-09-09T06:33:37;10.73;;;8.57;;
27728;SDS011;15126;42.186;24.340;2022-09-09T06:36:06;10.50;;;8.40;;
27728;SDS011;15126;42.186;24.340;2022-09-09T06:38:36;12.23;;;8.53;;
27728;SDS011;15126;42.186;24.340;2022-09-09T06:41:03;13.37;;;7.93;;
27728;SDS011;15126;42.186;24.340;2022-09-09T06:43:32;16.20;;;12.00;;
27728;SDS011;15126;42.186;24.340;2022-09-09T06:46:00;10.73;;;9.67;;
27728;SDS011;15126;42.186;24.340;2022-09-09T06:48:28;12.90;;;11.70;;
27728;SDS011;15126;42.186;24.340;2022-09-09T06:51:02;11.33;;;7.80;;
27728;SDS011;15126;42.186;24.340;2022-09-09T06:53:29;5.70;;;5.20;;
27728;SDS011;15126;42.186;24.340;2022-09-09T06:55:58;6.80;;;6.20;;
27728;SDS011;15126;42.186;24.340;2022-09-09T06:58:26;10.43;;;7.10;;
27728;SDS011;15126;42.186;24.340;2022-09-09T07:01:00;8.90;;;6.00;;
27728;SDS011;15126;42.186;24.340;2022-09-09T07:03:28;9.93;;;8.67;;
27728;SDS011;15126;42.186;24.340;2022-09-09T07:05:55;39.93;;;36.13;;
27728;SDS011;15126;42.186;24.340;2022-09-09T07:08:22;13.20;;;8.30;;
27728;SDS011;15126;42.186;24.340;2022-09-09T07:10:49;9.10;;;6.90;;
27728;SDS011;15126;42.186;24.340;2022-09-09T07:13:19;9.03;;;5.80;;
27728;SDS011;15126;42.186;24.340;2022-09-09T07:15:46;6.57;;;5.97;;
27728;SDS011;15126;42.186;24.340;2022-09-09T07:18:14;10.37;;;7.90;;
27728;SDS011;15126;42.186;24.340;2022-09-09T07:20:41;7.40;;;6.63;;
27728;SDS011;15126;42.186;24.340;2022-09-09T07:23:07;11.13;;;10.30;;
27728;SDS011;15126;42.186;24.340;2022-09-09T07:25:34;7.60;;;5.27;;
27728;SDS011;15126;42.186;24.340;2022-09-09T07:28:01;7.00;;;6.30;;
27728;SDS011;15126;42.186;24.340;2022-09-09T07:30:28;5.30;;;4.80;;
27728;SDS011;15126;42.186;24.340;2022-09-09T07:32:55;6.83;;;6.07;;
27728;SDS011;15126;42.186;24.340;2022-09-09T07:35:25;5.47;;;4.50;;
27728;SDS011;15126;42.186;24.340;2022-09-09T07:37:52;8.60;;;5.30;;
27728;SDS011;15126;42.186;24.340;2022-09-09T07:40:19;8.03;;;4.37;;
27728;SDS011;15126;42.186;24.340;2022-09-09T07:42:47;7.30;;;5.83;;
27728;SDS011;15126;42.186;24.340;2022-09-09T07:45:14;6.43;;;5.10;;
27728;SDS011;15126;42.186;24.340;2022-09-09T07:47:40;6.70;;;5.03;;
27728;SDS011;15126;42.186;24.340;2022-09-09T07:50:07;9.73;;;5.90;;
27728;SDS011;15126;42.186;24.340;2022-09-09T07:52:36;6.87;;;6.27;;
27728;SDS011;15126;42.186;24.340;2022-09-09T07:55:03;6.67;;;5.20;;
27728;SDS011;15126;42.186;24.340;2022-09-09T07:57:31;6.60;;;5.37;;
27728;SDS011;15126;42.186;24.340;2022-09-09T07:59:58;5.70;;;4.87;;
27728;SDS011;15126;42.186;24.340;2022-09-09T08:02:24;5.87;;;5.00;;
27728;SDS011;15126;42.186;24.340;2022-09-09T08:04:54;15.73;;;8.93;;
27728;SDS011;15126;42.186;24.340;2022-09-09T08:07:21;9.50;;;8.17;;
27728;SDS011;15126;42.186;24.340;2022-09-09T08:09:49;9.27;;;5.57;;
27728;SDS011;15126;42.186;24.340;2022-09-09T08:12:16;8.77;;;6.10;;
27728;SDS011;15126;42.186;24.340;2022-09-09T08:14:43;11.80;;;10.33;;
27728;SDS011;15126;42.186;24.340;2022-09-09T08:17:10;9.90;;;5.43;;
27728;SDS011;15126;42.186;24.340;2022-09-09T08:19:37;10.97;;;5.30;;
27728;SDS011;15126;42.186;24.340;2022-09-09T08:22:03;5.80;;;4.70;;
27728;SDS011;15126;42.186;24.340;2022-09-09T08:24:30;7.17;;;5.13;;
27728;SDS011;15126;42.186;24.340;2022-09-09T08:26:58;7.47;;;5.70;;
27728;SDS011;15126;42.186;24.340;2022-09-09T08:29:25;8.07;;;4.63;;
27728;SDS011;15126;42.186;24.340;2022-09-09T08:31:53;5.57;;;5.07;;
27728;SDS011;15126;42.186;24.340;2022-09-09T08:34:22;7.70;;;4.33;;
27728;SDS011;15126;42.186;24.340;2022-09-09T08:36:52;9.17;;;4.87;;
27728;SDS011;15126;42.186;24.340;2022-09-09T08:39:19;6.07;;;4.50;;
27728;SDS011;15126;42.186;24.340;2022-09-09T08:41:52;11.53;;;6.30;;
27728;SDS011;15126;42.186;24.340;2022-09-09T08:44:37;12.90;;;6.43;;
27728;SDS011;15126;42.186;24.340;2022-09-09T08:47:15;7.93;;;5.97;;
27728;SDS011;15126;42.186;24.340;2022-09-09T08:49:55;5.97;;;5.03;;
27728;SDS011;15126;42.186;24.340;2022-09-09T08:52:29;9.13;;;4.87;;
27728;SDS011;15126;42.186;24.340;2022-09-09T08:55:03;6.37;;;4.70;;
27728;SDS011;15126;42.186;24.340;2022-09-09T08:57:41;7.27;;;5.13;;
27728;SDS011;15126;42.186;24.340;2022-09-09T09:00:09;6.10;;;4.87;;
27728;SDS011;15126;42.186;24.340;2022-09-09T09:02:38;7.23;;;4.53;;
27728;SDS011;15126;42.186;24.340;2022-09-09T09:05:17;5.87;;;5.33;;
27728;SDS011;15126;42.186;24.340;2022-09-09T09:07:53;6.13;;;4.63;;
27728;SDS011;15126;42.186;24.340;2022-09-09T09:10:34;8.00;;;5.10;;
27728;SDS011;15126;42.186;24.340;2022-09-09T09:13:13;9.17;;;4.70;;
27728;SDS011;15126;42.186;24.340;2022-09-09T09:15:43;6.80;;;6.20;;
27728;SDS011;15126;42.186;24.340;2022-09-09T09:18:13;5.77;;;5.27;;
27728;SDS011;15126;42.186;24.340;2022-09-09T09:20:43;5.87;;;5.37;;
27728;SDS011;15126;42.186;24.340;2022-09-09T09:23:19;5.33;;;4.83;;
27728;SDS011;15126;42.186;24.340;2022-09-09T09:25:48;8.03;;;5.57;;
27728;SDS011;15126;42.186;24.340;2022-09-09T09:28:18;7.33;;;5.33;;
27728;SDS011;15126;42.186;24.340;2022-09-09T09:30:50;8.60;;;6.40;;
27728;SDS011;15126;42.186;24.340;2022-09-09T09:33:23;8.73;;;5.33;;
27728;SDS011;15126;42.186;24.340;2022-09-09T09:35:55;5.77;;;5.17;;
27728;SDS011;15126;42.186;24.340;2022-09-09T09:38:25;6.30;;;5.73;;
27728;SDS011;15126;42.186;24.340;2022-09-09T09:40:54;9.27;;;6.23;;
27728;SDS011;15126;42.186;24.340;2022-09-09T09:43:25;7.27;;;5.47;;
27728;SDS011;15126;42.186;24.340;2022-09-09T09:45:54;6.57;;;5.57;;
27728;SDS011;15126;42.186;24.340;2022-09-09T09:48:23;6.50;;;6.00;;
27728;SDS011;15126;42.186;24.340;2022-09-09T09:50:51;6.07;;;5.47;;
27728;SDS011;15126;42.186;24.340;2022-09-09T09:53:21;10.10;;;5.27;;
27728;SDS011;15126;42.186;24.340;2022-09-09T09:55:53;6.43;;;5.83;;
27728;SDS011;15126;42.186;24.340;2022-09-09T09:58:22;6.13;;;5.40;;
27728;SDS011;15126;42.186;24.340;2022-09-09T10:00:52;5.73;;;5.27;;
27728;SDS011;15126;42.186;24.340;2022-09-09T10:03:25;7.43;;;5.43;;
27728;SDS011;15126;42.186;24.340;2022-09-09T10:05:54;6.33;;;5.73;;
27728;SDS011;15126;42.186;24.340;2022-09-09T10:08:22;8.83;;;6.90;;
27728;SDS011;15126;42.186;24.340;2022-09-09T10:13:45;7.17;;;6.00;;
27728;SDS011;15126;42.186;24.340;2022-09-09T10:16:25;8.77;;;6.90;;
27728;SDS011;15126;42.186;24.340;2022-09-09T10:19:03;9.80;;;5.80;;
27728;SDS011;15126;42.186;24.340;2022-09-09T10:21:49;7.43;;;6.70;;
27728;SDS011;15126;42.186;24.340;2022-09-09T10:24:42;6.27;;;5.77;;
27728;SDS011;15126;42.186;24.340;2022-09-09T10:27:22;12.57;;;6.30;;
27728;SDS011;15126;42.186;24.340;2022-09-09T10:30:08;8.70;;;6.17;;
27728;SDS011;15126;42.186;24.340;2022-09-09T10:32:46;7.90;;;7.07;;
27728;SDS011;15126;42.186;24.340;2022-09-09T10:35:24;10.60;;;6.63;;
27728;SDS011;15126;42.186;24.340;2022-09-09T10:38:08;7.83;;;6.93;;
27728;SDS011;15126;42.186;24.340;2022-09-09T10:40:42;7.67;;;6.83;;
27728;SDS011;15126;42.186;24.340;2022-09-09T10:43:19;7.43;;;6.80;;
27728;SDS011;15126;42.186;24.340;2022-09-09T10:45:58;10.97;;;7.47;;
27728;SDS011;15126;42.186;24.340;2022-09-09T10:48:38;7.40;;;6.67;;
27728;SDS011;15126;42.186;24.340;2022-09-09T10:51:14;9.30;;;6.13;;
27728;SDS011;15126;42.186;24.340;2022-09-09T10:57:03;7.17;;;6.10;;
27728;SDS011;15126;42.186;24.340;2022-09-09T10:59:38;7.60;;;6.70;;
27728;SDS011;15126;42.186;24.340;2022-09-09T11:02:12;6.70;;;6.10;;
27728;SDS011;15126;42.186;24.340;2022-09-09T11:04:48;7.90;;;6.32;;
27728;SDS011;15126;42.186;24.340;2022-09-09T11:07:20;7.53;;;6.60;;
27728;SDS011;15126;42.186;24.340;2022-09-09T11:09:54;8.10;;;6.50;;
27728;SDS011;15126;42.186;24.340;2022-09-09T11:12:27;6.70;;;6.10;;
27728;SDS011;15126;42.186;24.340;2022-09-09T11:14:58;10.60;;;7.43;;
27728;SDS011;15126;42.186;24.340;2022-09-09T11:17:33;9.23;;;6.73;;
27728;SDS011;15126;42.186;24.340;2022-09-09T11:20:12;9.93;;;6.80;;
27728;SDS011;15126;42.186;24.340;2022-09-09T11:22:42;7.80;;;7.10;;
27728;SDS011;15126;42.186;24.340;2022-09-09T11:25:14;7.83;;;7.10;;
27728;SDS011;15126;42.186;24.340;2022-09-09T11:27:44;10.67;;;6.60;;
27728;SDS011;15126;42.186;24.340;2022-09-09T11:30:29;11.68;;;7.55;;
27728;SDS011;15126;42.186;24.340;2022-09-09T11:33:09;8.07;;;6.65;;
27728;SDS011;15126;42.186;24.340;2022-09-09T11:36:09;7.60;;;7.00;;
27728;SDS011;15126;42.186;24.340;2022-09-09T11:38:50;11.17;;;6.93;;
27728;SDS011;15126;42.186;24.340;2022-09-09T11:41:18;7.35;;;6.75;;
27728;SDS011;15126;42.186;24.340;2022-09-09T11:43:47;9.30;;;6.43;;
27728;SDS011;15126;42.186;24.340;2022-09-09T11:46:17;7.20;;;6.50;;
27728;SDS011;15126;42.186;24.340;2022-09-09T11:48:57;10.85;;;6.90;;
27728;SDS011;15126;42.186;24.340;2022-09-09T11:51:27;7.18;;;6.55;;
27728;SDS011;15126;42.186;24.340;2022-09-09T11:53:56;7.00;;;6.20;;
27728;SDS011;15126;42.186;24.340;2022-09-09T11:56:27;7.93;;;6.68;;
27728;SDS011;15126;42.186;24.340;2022-09-09T11:59:00;10.13;;;6.97;;
27728;SDS011;15126;42.186;24.340;2022-09-09T12:01:35;8.65;;;7.05;;
27728;SDS011;15126;42.186;24.340;2022-09-09T12:04:14;7.63;;;6.75;;
27728;SDS011;15126;42.186;24.340;2022-09-09T12:07:05;12.50;;;6.93;;
27728;SDS011;15126;42.186;24.340;2022-09-09T12:09:52;8.55;;;7.38;;
27728;SDS011;15126;42.186;24.340;2022-09-09T12:12:26;12.23;;;7.70;;
27728;SDS011;15126;42.186;24.340;2022-09-09T12:15:18;9.33;;;7.70;;
27728;SDS011;15126;42.186;24.340;2022-09-09T12:17:53;10.10;;;7.45;;
27728;SDS011;15126;42.186;24.340;2022-09-09T12:20:22;11.27;;;8.02;;
27728;SDS011;15126;42.186;24.340;2022-09-09T12:25:48;8.63;;;6.60;;
27728;SDS011;15126;42.186;24.340;2022-09-09T12:28:24;11.32;;;6.68;;
27728;SDS011;15126;42.186;24.340;2022-09-09T12:30:58;7.65;;;7.05;;
27728;SDS011;15126;42.186;24.340;2022-09-09T12:33:34;9.85;;;7.10;;
27728;SDS011;15126;42.186;24.340;2022-09-09T12:36:02;9.93;;;7.95;;
27728;SDS011;15126;42.186;24.340;2022-09-09T12:38:34;12.10;;;8.25;;
27728;SDS011;15126;42.186;24.340;2022-09-09T12:41:03;7.60;;;7.00;;
27728;SDS011;15126;42.186;24.340;2022-09-09T12:43:30;8.82;;;7.57;;
27728;SDS011;15126;42.186;24.340;2022-09-09T12:45:57;10.07;;;7.85;;
27728;SDS011;15126;42.186;24.340;2022-09-09T12:48:29;8.10;;;6.85;;
27728;SDS011;15126;42.186;24.340;2022-09-09T12:50:59;7.95;;;7.18;;
27728;SDS011;15126;42.186;24.340;2022-09-09T12:53:29;8.38;;;7.30;;
27728;SDS011;15126;42.186;24.340;2022-09-09T12:56:01;8.18;;;7.38;;
27728;SDS011;15126;42.186;24.340;2022-09-09T12:58:31;10.13;;;7.38;;
27728;SDS011;15126;42.186;24.340;2022-09-09T13:01:00;9.47;;;7.70;;
27728;SDS011;15126;42.186;24.340;2022-09-09T13:03:29;8.88;;;8.07;;
27728;SDS011;15126;42.186;24.340;2022-09-09T13:05:57;11.33;;;7.80;;
27728;SDS011;15126;42.186;24.340;2022-09-09T13:08:25;7.88;;;6.90;;
27728;SDS011;15126;42.186;24.340;2022-09-09T13:10:53;11.87;;;8.37;;
27728;SDS011;15126;42.186;24.340;2022-09-09T13:13:27;8.87;;;8.03;;
27728;SDS011;15126;42.186;24.340;2022-09-09T13:15:56;8.47;;;7.37;;
27728;SDS011;15126;42.186;24.340;2022-09-09T13:18:25;10.65;;;7.68;;
27728;SDS011;15126;42.186;24.340;2022-09-09T13:20:55;8.60;;;7.73;;
27728;SDS011;15126;42.186;24.340;2022-09-09T13:23:25;10.17;;;7.57;;
27728;SDS011;15126;42.186;24.340;2022-09-09T13:25:55;8.73;;;7.90;;
27728;SDS011;15126;42.186;24.340;2022-09-09T13:28:23;12.23;;;9.93;;
27728;SDS011;15126;42.186;24.340;2022-09-09T13:31:00;10.40;;;9.60;;
27728;SDS011;15126;42.186;24.340;2022-09-09T13:33:31;9.00;;;8.20;;
27728;SDS011;15126;42.186;24.340;2022-09-09T13:36:02;8.27;;;7.47;;
27728;SDS011;15126;42.186;24.340;2022-09-09T13:38:32;8.13;;;7.53;;
27728;SDS011;15126;42.186;24.340;2022-09-09T13:41:03;7.83;;;6.93;;
27728;SDS011;15126;42.186;24.340;2022-09-09T13:43:34;6.93;;;6.33;;
27728;SDS011;15126;42.186;24.340;2022-09-09T13:46:05;8.63;;;7.20;;
27728;SDS011;15126;42.186;24.340;2022-09-09T13:48:55;12.20;;;7.17;;
27728;SDS011;15126;42.186;24.340;2022-09-09T13:51:28;7.83;;;7.20;;
27728;SDS011;15126;42.186;24.340;2022-09-09T13:53:59;8.03;;;7.33;;
27728;SDS011;15126;42.186;24.340;2022-09-09T13:56:27;12.00;;;8.13;;
27728;SDS011;15126;42.186;24.340;2022-09-09T13:58:54;9.20;;;8.30;;
27728;SDS011;15126;42.186;24.340;2022-09-09T14:01:24;8.13;;;7.43;;
27728;SDS011;15126;42.186;24.340;2022-09-09T14:03:52;10.00;;;8.43;;
27728;SDS011;15126;42.186;24.340;2022-09-09T14:06:19;10.40;;;8.93;;
27728;SDS011;15126;42.186;24.340;2022-09-09T14:08:47;8.43;;;7.57;;
27728;SDS011;15126;42.186;24.340;2022-09-09T14:11:14;9.70;;;8.20;;
27728;SDS011;15126;42.186;24.340;2022-09-09T14:13:41;11.37;;;7.87;;
27728;SDS011;15126;42.186;24.340;2022-09-09T14:16:07;10.30;;;8.33;;
27728;SDS011;15126;42.186;24.340;2022-09-09T14:18:36;11.43;;;8.70;;
27728;SDS011;15126;42.186;24.340;2022-09-09T14:21:04;11.17;;;9.00;;
27728;SDS011;15126;42.186;24.340;2022-09-09T14:23:31;12.17;;;8.97;;
27728;SDS011;15126;42.186;24.340;2022-09-09T14:25:57;10.13;;;8.43;;
27728;SDS011;15126;42.186;24.340;2022-09-09T14:28:24;12.53;;;9.00;;
27728;SDS011;15126;42.186;24.340;2022-09-09T14:30:51;11.47;;;8.00;;
27728;SDS011;15126;42.186;24.340;2022-09-09T14:33:18;9.30;;;8.37;;
27728;SDS011;15126;42.186;24.340;2022-09-09T14:35:46;10.37;;;9.30;;
27728;SDS011;15126;42.186;24.340;2022-09-09T14:38:13;10.23;;;9.07;;
27728;SDS011;15126;42.186;24.340;2022-09-09T14:40:40;13.53;;;10.43;;
27728;SDS011;15126;42.186;24.340;2022-09-09T14:43:09;11.20;;;10.30;;
27728;SDS011;15126;42.186;24.340;2022-09-09T14:45:37;12.93;;;11.53;;
27728;SDS011;15126;42.186;24.340;2022-09-09T14:48:04;11.63;;;10.37;;
27728;SDS011;15126;42.186;24.340;2022-09-09T14:50:31;12.53;;;10.23;;
27728;SDS011;15126;42.186;24.340;2022-09-09T14:52:59;10.53;;;9.37;;